Time;durP1;ratioP1;P1;durP2;ratioP2;P2;SDS_P1;SDS_P2;PMS_P1;PMS_P2;Temp;Humidity;BMP_temperature;BMP_pressure;BME280_temperature;BME280_humidity;BME280_pressure;Samples;Min_cycle;Max_cycle;Signal;HPM_P1;HPM_P2
2023/04/08 00:02:00;;;;;;;29.15;15.77;;;;;;;4.28;99.76;101496.50;7401608;19;20035;-72
2023/04/08 00:04:30;;;;;;;27.60;16.15;;;;;;;4.27;100.00;101500.81;7399164;19;20497;-68
2023/04/08 00:06:59;;;;;;;29.27;15.88;;;;;;;4.26;100.00;101500.78;7399723;19;20022;-67
2023/04/08 00:09:27;;;;;;;26.77;15.77;;;;;;;4.26;100.00;101498.19;7401595;19;20036;-67
2023/04/08 00:11:58;;;;;;;26.67;14.85;;;;;;;4.24;100.00;101495.56;7401181;19;20078;-69
2023/04/08 00:14:27;;;;;;;27.73;14.40;;;;;;;4.23;100.00;101492.13;7398981;19;20415;-68
2023/04/08 00:16:55;;;;;;;25.58;14.05;;;;;;;4.23;100.00;101491.22;7401063;19;20081;-68
2023/04/08 00:19:24;;;;;;;23.85;14.48;;;;;;;4.23;100.00;101488.63;7401379;19;20086;-68
2023/04/08 00:21:52;;;;;;;25.15;13.82;;;;;;;4.21;100.00;101491.22;7401220;19;20014;-68
2023/04/08 00:24:21;;;;;;;24.80;14.13;;;;;;;4.23;100.00;101480.84;7398589;19;20027;-68
2023/04/08 00:26:49;;;;;;;25.02;14.48;;;;;;;4.22;100.00;101492.06;7399133;19;20078;-68
2023/04/08 00:29:20;;;;;;;24.15;13.32;;;;;;;4.22;100.00;101489.47;7401027;19;20083;-68
2023/04/08 00:31:49;;;;;;;25.25;14.32;;;;;;;4.23;100.00;101491.22;7401126;19;20085;-68
2023/04/08 00:34:17;;;;;;;22.48;13.45;;;;;;;4.23;100.00;101486.91;7398845;19;20035;-68
2023/04/08 00:36:47;;;;;;;24.48;13.45;;;;;;;4.23;100.00;101480.84;7400326;19;20378;-68
2023/04/08 00:39:15;;;;;;;21.85;13.35;;;;;;;4.26;100.00;101483.50;7400718;19;20015;-68
2023/04/08 00:41:44;;;;;;;20.40;12.07;;;;;;;4.28;99.64;101479.19;7400592;19;20035;-68
2023/04/08 00:44:19;;;;;;;21.35;13.15;;;;;;;4.26;100.00;101480.91;7395975;19;20010;-68
2023/04/08 00:46:50;;;;;;;22.15;12.18;;;;;;;4.27;100.00;101485.22;7399100;19;20154;-68
2023/04/08 00:49:18;;;;;;;20.63;12.38;;;;;;;4.27;100.00;101482.63;7400822;19;20082;-68
2023/04/08 00:51:47;;;;;;;17.00;11.70;;;;;;;4.26;100.00;101485.19;7397799;19;20019;-68
2023/04/08 00:54:15;;;;;;;19.40;12.75;;;;;;;4.25;100.00;101479.16;7398248;19;20098;-68
2023/04/08 00:56:46;;;;;;;18.55;11.88;;;;;;;4.25;100.00;101479.16;7400016;19;20085;-68
2023/04/08 00:59:14;;;;;;;18.05;11.43;;;;;;;4.26;100.00;101480.00;7399712;19;20074;-68
2023/04/08 01:01:46;;;;;;;18.95;12.05;;;;;;;4.25;100.00;101481.75;7399944;19;20019;-68
2023/04/08 01:04:28;;;;;;;20.25;13.20;;;;;;;4.23;100.00;101486.91;7397372;19;20018;-68
2023/04/08 01:07:02;;;;;;;19.00;12.32;;;;;;;4.25;100.00;101484.34;7398059;19;20078;-68
2023/04/08 01:09:36;;;;;;;20.90;13.13;;;;;;;4.21;100.00;101475.63;7400161;19;20015;-69
2023/04/08 01:12:09;;;;;;;18.02;13.02;;;;;;;4.24;100.00;101482.59;7400074;19;20066;-68
2023/04/08 01:14:44;;;;;;;17.75;11.60;;;;;;;4.26;100.00;101483.50;7397843;19;20078;-67
2023/04/08 01:17:13;;;;;;;18.15;11.45;;;;;;;4.27;100.00;101489.56;7399110;19;20488;-67
2023/04/08 01:19:46;;;;;;;19.30;12.55;;;;;;;4.28;100.00;101484.38;7398962;19;20078;-67
2023/04/08 01:22:24;;;;;;;19.35;12.48;;;;;;;4.30;100.00;101487.88;7399282;19;20396;-67
2023/04/08 01:25:01;;;;;;;19.70;12.75;;;;;;;4.30;100.00;101493.09;7396949;19;20078;-67
2023/04/08 01:27:33;;;;;;;18.85;12.63;;;;;;;4.32;100.00;101487.91;7397918;19;20033;-67
2023/04/08 01:30:03;;;;;;;21.98;12.85;;;;;;;4.33;100.00;101487.06;7398885;19;20434;-67
2023/04/08 01:32:34;;;;;;;21.40;12.27;;;;;;;4.32;100.00;101486.19;7398760;19;20032;-67
2023/04/08 01:35:04;;;;;;;20.88;12.93;;;;;;;4.34;100.00;101491.41;7399229;19;20014;-67
2023/04/08 01:37:34;;;;;;;21.30;13.27;;;;;;;4.32;100.00;101490.50;7396633;19;20019;-67
2023/04/08 01:40:04;;;;;;;19.60;12.13;;;;;;;4.32;100.00;101486.19;7398752;19;20028;-66
2023/04/08 01:42:36;;;;;;;20.92;12.85;;;;;;;4.32;100.00;101490.50;7397356;19;20536;-66
2023/04/08 01:45:06;;;;;;;19.60;12.98;;;;;;;4.32;100.00;101488.78;7398141;19;20497;-66
2023/04/08 01:47:37;;;;;;;19.48;13.07;;;;;;;4.34;100.00;101489.66;7396451;19;20073;-66
2023/04/08 01:50:07;;;;;;;18.80;12.63;;;;;;;4.36;100.00;101492.28;7398421;19;20028;-66
2023/04/08 01:52:39;;;;;;;21.40;13.07;;;;;;;4.37;100.00;101488.84;7398348;19;20035;-66
2023/04/08 01:55:08;;;;;;;19.30;12.30;;;;;;;4.37;100.00;101494.94;7395904;19;20494;-66
2023/04/08 01:57:41;;;;;;;19.02;12.90;;;;;;;4.39;100.00;101497.56;7397968;19;20035;-67
2023/04/08 02:00:12;;;;;;;19.02;13.02;;;;;;;4.38;100.00;101495.78;7395807;19;20011;-67
2023/04/08 02:02:44;;;;;;;23.80;13.45;;;;;;;4.39;100.00;101505.34;7398033;19;20074;-67
2023/04/08 02:05:12;;;;;;;21.95;13.80;;;;;;;4.39;100.00;101506.22;7395596;19;20024;-66
2023/04/08 02:07:41;;;;;;;22.58;14.10;;;;;;;4.40;100.00;101505.38;7395623;19;20035;-66
2023/04/08 02:10:10;;;;;;;23.92;14.80;;;;;;;4.40;100.00;101504.50;7397724;19;20413;-66
2023/04/08 02:12:41;;;;;;;20.65;12.43;;;;;;;4.40;100.00;101507.97;7396982;19;20082;-68
2023/04/08 02:15:11;;;;;;;19.65;12.57;;;;;;;4.40;100.00;101500.16;7397653;19;20082;-66
2023/04/08 02:17:46;;;;;;;22.30;13.43;;;;;;;4.42;100.00;101507.97;7397401;19;20087;-66
2023/04/08 02:20:19;;;;;;;27.35;16.13;;;;;;;4.43;100.00;101508.88;7397800;19;20022;-66
2023/04/08 02:22:52;;;;;;;32.20;16.97;;;;;;;4.42;100.00;101509.72;7397183;19;20010;-66
2023/04/08 02:25:25;;;;;;;29.42;17.00;;;;;;;4.43;100.00;101512.34;7397493;19;20198;-67
2023/04/08 02:27:58;;;;;;;33.63;18.65;;;;;;;4.43;100.00;101501.94;7396069;19;20170;-66
2023/04/08 02:30:29;;;;;;;33.60;18.85;;;;;;;4.43;100.00;101508.88;7397101;19;20082;-66
2023/04/08 02:32:59;;;;;;;34.90;19.60;;;;;;;4.42;100.00;101502.78;7396711;19;20073;-67
2023/04/08 02:35:30;;;;;;;36.92;18.92;;;;;;;4.44;100.00;101506.28;7394745;19;20545;-66
2023/04/08 02:37:58;;;;;;;37.80;20.92;;;;;;;4.44;100.00;101505.44;7397184;19;20101;-67
2023/04/08 02:40:28;;;;;;;45.72;22.80;;;;;;;4.44;100.00;101510.63;7396254;19;20557;-67
2023/04/08 02:43:00;;;;;;;42.80;22.48;;;;;;;4.44;100.00;101510.63;7395593;19;20085;-67
2023/04/08 02:45:31;;;;;;;48.85;23.88;;;;;;;4.44;100.00;101518.41;7396063;19;20549;-67
2023/04/08 02:48:01;;;;;;;60.90;27.17;;;;;;;4.44;100.00;101515.81;7395020;19;20074;-67
2023/04/08 02:50:30;;;;;;;51.60;24.42;;;;;;;4.42;100.00;101513.19;7394397;19;20522;-67
2023/04/08 02:52:58;;;;;;;56.70;25.63;;;;;;;4.42;100.00;101514.91;7395822;19;20090;-67
2023/04/08 02:55:27;;;;;;;52.80;24.92;;;;;;;4.40;100.00;101513.16;7395658;19;20085;-67
2023/04/08 02:57:55;;;;;;;62.45;27.85;;;;;;;4.40;100.00;101514.91;7396062;19;20086;-67
2023/04/08 03:00:26;;;;;;;55.70;25.30;;;;;;;4.42;100.00;101520.97;7395675;19;20031;-67
2023/04/08 03:02:55;;;;;;;63.33;29.27;;;;;;;4.39;100.00;101521.78;7395222;19;20025;-67
2023/04/08 03:05:23;;;;;;;64.55;28.88;;;;;;;4.39;100.00;101529.59;7395872;19;20031;-67
2023/04/08 03:07:52;;;;;;;67.68;29.92;;;;;;;4.40;100.00;101526.16;7393639;19;20547;-67
2023/04/08 03:10:20;;;;;;;71.63;30.13;;;;;;;4.40;100.00;101539.13;7395627;19;20015;-67
2023/04/08 03:12:49;;;;;;;78.13;31.88;;;;;;;4.42;100.00;101538.28;7395194;19;20089;-67
2023/04/08 03:15:17;;;;;;;77.25;32.42;;;;;;;4.43;100.00;101540.06;7395316;19;20018;-67
2023/04/08 03:17:48;;;;;;;73.38;30.20;;;;;;;4.43;100.00;101535.72;7395182;19;20070;-67
2023/04/08 03:20:16;;;;;;;81.63;31.75;;;;;;;4.44;100.00;101536.63;7395892;19;20070;-67
2023/04/08 03:22:46;;;;;;;88.70;33.38;;;;;;;4.45;100.00;101540.94;7395095;19;20014;-67
2023/04/08 03:25:14;;;;;;;87.97;32.58;;;;;;;4.45;100.00;101543.53;7394900;19;20018;-67
2023/04/08 03:27:42;;;;;;;89.30;34.40;;;;;;;4.45;100.00;101541.81;7393860;19;20491;-67
2023/04/08 03:30:11;;;;;;;85.15;34.58;;;;;;;4.45;100.00;101533.13;7393196;19;20438;-67
2023/04/08 03:32:40;;;;;;;88.50;33.70;;;;;;;4.45;100.00;101544.44;7394919;19;20029;-67
2023/04/08 03:35:11;;;;;;;94.13;33.63;;;;;;;4.44;100.00;101540.06;7392849;19;20074;-67
2023/04/08 03:37:40;;;;;;;98.80;35.45;;;;;;;4.44;100.00;101547.88;7394781;19;20489;-67
2023/04/08 03:40:10;;;;;;;99.75;34.72;;;;;;;4.45;100.00;101546.13;7394629;19;20548;-67
2023/04/08 03:42:38;;;;;;;95.57;35.88;;;;;;;4.45;100.00;101553.94;7394510;19;20021;-68
2023/04/08 03:45:20;;;;;;;107.78;37.38;;;;;;;4.47;100.00;101553.09;7392825;19;20082;-67
2023/04/08 03:47:48;;;;;;;98.38;37.35;;;;;;;4.48;100.00;101551.41;7394128;19;20029;-67
2023/04/08 03:50:19;;;;;;;109.63;38.72;;;;;;;4.50;100.00;101560.06;7392215;19;20373;-67
2023/04/08 03:52:48;;;;;;;110.60;37.05;;;;;;;4.52;100.00;101558.38;7393998;19;20030;-67
2023/04/08 03:55:16;;;;;;;110.18;38.00;;;;;;;4.53;100.00;101557.53;7394370;19;20025;-67
2023/04/08 03:57:45;;;;;;;112.97;39.97;;;;;;;4.55;100.00;101551.50;7394364;19;20087;-67
2023/04/08 04:00:15;;;;;;;114.28;39.65;;;;;;;4.56;100.00;101560.16;7393952;19;20022;-67
2023/04/08 04:02:44;;;;;;;117.47;39.83;;;;;;;4.59;100.00;101564.53;7393917;19;20384;-67
2023/04/08 04:05:12;;;;;;;114.40;38.28;;;;;;;4.60;100.00;101563.69;7394241;19;20035;-67
2023/04/08 04:07:43;;;;;;;122.18;41.20;;;;;;;4.60;100.00;101568.91;7392770;19;20014;-67
2023/04/08 04:10:12;;;;;;;118.90;39.20;;;;;;;4.59;100.00;101572.34;7394593;19;20202;-67
2023/04/08 04:12:40;;;;;;;126.25;42.17;;;;;;;4.62;100.00;101572.41;7393335;19;20493;-68
2023/04/08 04:15:10;;;;;;;132.25;40.38;;;;;;;4.62;100.00;101580.22;7392032;19;20078;-68
2023/04/08 04:17:38;;;;;;;137.23;44.17;;;;;;;4.61;100.00;101584.50;7393943;19;20021;-67
2023/04/08 04:20:07;;;;;;;126.45;44.58;;;;;;;4.62;100.00;101586.28;7400311;19;20010;-67
2023/04/08 04:22:36;;;;;;;139.25;43.00;;;;;;;4.63;100.00;101585.41;7400480;19;20027;-68
2023/04/08 04:25:08;;;;;;;133.68;43.40;;;;;;;4.65;100.00;101586.34;7401111;19;20066;-67
2023/04/08 04:27:36;;;;;;;131.75;43.67;;;;;;;4.66;100.00;101582.00;7399753;19;20485;-68
2023/04/08 04:30:06;;;;;;;123.68;42.90;;;;;;;4.67;100.00;101595.00;7401015;19;20010;-68
2023/04/08 04:32:34;;;;;;;146.52;44.78;;;;;;;4.69;100.00;101592.47;7400464;19;20085;-68
2023/04/08 04:35:03;;;;;;;144.23;46.25;;;;;;;4.69;100.00;101589.88;7400468;19;20094;-68
2023/04/08 04:37:31;;;;;;;142.77;44.00;;;;;;;4.69;100.00;101589.88;7400547;19;20022;-67
2023/04/08 04:40:00;;;;;;;148.52;46.55;;;;;;;4.69;100.00;101598.53;7400209;19;20014;-67
2023/04/08 04:42:31;;;;;;;143.80;43.65;;;;;;;4.70;100.00;101599.38;7399705;19;20489;-66
2023/04/08 04:45:00;;;;;;;140.82;44.20;;;;;;;4.71;100.00;101595.94;7397758;19;20078;-67
2023/04/08 04:47:31;;;;;;;144.35;43.30;;;;;;;4.70;100.00;101599.38;7397602;19;20019;-67
2023/04/08 04:50:00;;;;;;;143.48;44.40;;;;;;;4.71;100.00;101612.44;7400933;19;20446;-66
2023/04/08 04:52:28;;;;;;;145.70;45.40;;;;;;;4.70;100.00;101605.47;7400104;19;20010;-67
2023/04/08 04:54:58;;;;;;;140.43;43.45;;;;;;;4.70;100.00;101608.06;7397286;19;20468;-66
2023/04/08 04:57:27;;;;;;;147.05;45.38;;;;;;;4.70;100.00;101615.88;7399760;19;20024;-66
2023/04/08 04:59:58;;;;;;;141.48;46.80;;;;;;;4.70;100.00;101605.47;7397302;19;20018;-67
2023/04/08 05:02:26;;;;;;;155.18;46.45;;;;;;;4.71;100.00;101607.22;7400275;19;20078;-67
2023/04/08 05:04:55;;;;;;;162.48;45.88;;;;;;;4.73;100.00;101618.50;7399832;19;20014;-66
2023/04/08 05:07:23;;;;;;;160.40;44.53;;;;;;;4.73;100.00;101617.66;7399215;19;20074;-66
2023/04/08 05:09:52;;;;;;;155.70;46.05;;;;;;;4.73;100.00;101615.91;7399836;19;20011;-66
2023/04/08 05:12:20;;;;;;;158.10;45.63;;;;;;;4.75;100.00;101615.06;7399658;19;20018;-67
2023/04/08 05:14:49;;;;;;;143.02;44.33;;;;;;;4.76;100.00;101616.81;7397047;19;20019;-66
2023/04/08 05:17:20;;;;;;;162.35;47.47;;;;;;;4.77;100.00;101621.19;7398940;19;20540;-66
2023/04/08 05:19:48;;;;;;;159.27;46.90;;;;;;;4.77;100.00;101629.84;7399744;19;20031;-66
2023/04/08 05:22:17;;;;;;;156.30;47.78;;;;;;;4.76;100.00;101635.88;7399169;19;20022;-67
2023/04/08 05:24:45;;;;;;;184.05;49.45;;;;;;;4.77;100.00;101640.25;7396261;19;20100;-65
2023/04/08 05:27:14;;;;;;;175.65;48.83;;;;;;;4.77;100.00;101649.78;7398560;19;20078;-66
2023/04/08 05:29:42;;;;;;;170.45;48.92;;;;;;;4.77;100.00;101640.25;7398700;19;20014;-66
2023/04/08 05:32:11;;;;;;;172.90;46.72;;;;;;;4.79;100.00;101640.25;7398426;19;20021;-66
2023/04/08 05:34:42;;;;;;;158.40;47.92;;;;;;;4.80;100.00;101648.09;7396886;19;20023;-66
2023/04/08 05:37:10;;;;;;;168.35;49.83;;;;;;;4.84;100.00;101646.41;7398482;19;20353;-67
2023/04/08 05:39:39;;;;;;;180.15;48.33;;;;;;;4.84;100.00;101649.00;7398751;19;20025;-67
2023/04/08 05:42:08;;;;;;;168.00;48.95;;;;;;;4.84;100.00;101652.50;7398590;19;20041;-66
2023/04/08 05:44:37;;;;;;;163.70;49.65;;;;;;;4.87;100.00;101651.69;7395595;19;20014;-67
2023/04/08 05:47:05;;;;;;;177.60;49.00;;;;;;;4.88;100.00;101648.22;7398412;19;20025;-66
2023/04/08 05:49:35;;;;;;;166.43;49.03;;;;;;;4.89;100.00;101655.16;7396803;19;20021;-66
2023/04/08 05:52:06;;;;;;;172.02;47.75;;;;;;;4.88;100.00;101649.09;7398201;19;20023;-66
2023/04/08 05:54:35;;;;;;;184.30;48.58;;;;;;;4.89;100.00;101655.16;7396366;19;20094;-67
2023/04/08 05:57:03;;;;;;;164.75;48.80;;;;;;;4.89;100.00;101648.25;7395698;19;20014;-66
2023/04/08 05:59:31;;;;;;;172.40;47.25;;;;;;;4.92;100.00;101654.38;7397844;19;20025;-66
2023/04/08 06:02:00;;;;;;;165.70;46.83;;;;;;;4.93;100.00;101659.59;7397794;19;20025;-67
2023/04/08 06:04:28;;;;;;;170.68;49.65;;;;;;;4.95;100.00;101668.25;7395900;19;20019;-67
2023/04/08 06:06:58;;;;;;;170.90;48.20;;;;;;;4.96;100.00;101675.22;7397720;19;20022;-67
2023/04/08 06:09:29;;;;;;;171.68;49.47;;;;;;;4.97;100.00;101676.97;7395653;19;20036;-67
2023/04/08 06:11:58;;;;;;;180.63;50.63;;;;;;;5.00;100.00;101673.56;7395971;19;20019;-66
2023/04/08 06:14:26;;;;;;;165.55;46.65;;;;;;;5.02;100.00;101682.25;7395657;19;20015;-66
2023/04/08 06:16:56;;;;;;;165.23;47.95;;;;;;;5.03;100.00;101684.88;7397050;19;20078;-67
2023/04/08 06:19:24;;;;;;;175.05;49.63;;;;;;;5.07;100.00;101688.41;7397080;19;20363;-66
2023/04/08 06:21:57;;;;;;;178.57;50.42;;;;;;;5.10;100.00;101692.78;7396257;19;20014;-67
2023/04/08 06:24:29;;;;;;;165.60;48.92;;;;;;;5.15;100.00;101696.34;7395421;19;20014;-66
2023/04/08 06:26:58;;;;;;;171.98;48.78;;;;;;;5.18;100.00;101698.97;7397369;19;20020;-67
2023/04/08 06:29:28;;;;;;;164.63;50.78;;;;;;;5.21;100.00;101704.25;7395257;19;20028;-67
2023/04/08 06:32:19;;;;;;;164.25;50.78;;;;;;;5.27;100.00;101700.84;7396322;19;20485;-67
2023/04/08 06:34:47;;;;;;;180.30;49.33;;;;;;;5.30;100.00;101701.78;7394962;19;20025;-67
2023/04/08 06:37:16;;;;;;;171.02;50.22;;;;;;;5.33;100.00;101703.53;7394771;19;20082;-67
2023/04/08 06:39:47;;;;;;;167.02;49.15;;;;;;;5.34;100.00;101700.09;7396211;19;20416;-67
2023/04/08 06:42:15;;;;;;;170.10;49.00;;;;;;;5.36;100.00;101703.59;7395616;19;20018;-67
2023/04/08 06:44:57;;;;;;;162.20;47.63;;;;;;;5.37;100.00;101708.84;7394131;19;20017;-67
2023/04/08 06:47:25;;;;;;;160.27;50.05;;;;;;;5.41;100.00;101712.38;7396510;19;20010;-67
2023/04/08 06:49:54;;;;;;;162.45;50.97;;;;;;;5.44;100.00;101711.53;7394710;19;20085;-67
2023/04/08 06:52:22;;;;;;;154.23;48.97;;;;;;;5.48;100.00;101715.91;7395797;19;20015;-68
2023/04/08 06:54:53;;;;;;;158.88;49.38;;;;;;;5.50;100.00;101711.63;7394355;19;20086;-67
2023/04/08 06:57:21;;;;;;;153.05;48.10;;;;;;;5.53;100.00;101716.84;7395828;19;20021;-67
2023/04/08 06:59:51;;;;;;;153.85;48.25;;;;;;;5.58;100.00;101711.72;7395456;19;20010;-67
2023/04/08 07:02:21;;;;;;;147.55;46.17;;;;;;;5.62;100.00;101719.59;7393834;19;20481;-68
2023/04/08 07:04:49;;;;;;;137.20;48.25;;;;;;;5.68;100.00;101726.63;7395052;19;20066;-68
2023/04/08 07:07:18;;;;;;;136.00;47.75;;;;;;;5.73;100.00;101727.56;7395745;19;20015;-68
2023/04/08 07:09:47;;;;;;;121.43;44.03;;;;;;;5.77;100.00;101731.09;7393838;19;20014;-67
2023/04/08 07:12:18;;;;;;;117.45;43.60;;;;;;;5.82;100.00;101735.50;7395394;19;20014;-67
2023/04/08 07:14:46;;;;;;;123.35;44.55;;;;;;;5.88;100.00;101737.31;7393513;19;20490;-67
2023/04/08 07:17:14;;;;;;;127.50;44.35;;;;;;;5.93;100.00;101743.47;7393830;19;20022;-67
2023/04/08 07:19:43;;;;;;;114.85;44.45;;;;;;;5.98;100.00;101747.03;7394800;19;20021;-65
2023/04/08 07:22:11;;;;;;;107.53;42.80;;;;;;;6.02;100.00;101748.81;7394827;19;20007;-66
2023/04/08 07:24:41;;;;;;;102.68;43.75;;;;;;;6.07;100.00;101748.91;7393566;19;20018;-66
2023/04/08 07:27:10;;;;;;;112.25;44.92;;;;;;;6.11;100.00;101758.50;7394750;19;20036;-66
2023/04/08 07:29:41;;;;;;;96.38;40.13;;;;;;;6.15;100.00;101759.41;7393667;19;20018;-67
2023/04/08 07:32:10;;;;;;;107.50;41.38;;;;;;;6.18;100.00;101760.34;7394808;19;20079;-66
2023/04/08 07:34:38;;;;;;;104.93;43.38;;;;;;;6.22;100.00;101761.25;7393278;19;20030;-66
2023/04/08 07:37:06;;;;;;;84.32;40.03;;;;;;;6.27;100.00;101769.09;7395226;19;20082;-66
2023/04/08 07:39:35;;;;;;;95.43;40.85;;;;;;;6.29;100.00;101762.19;7394666;19;20010;-68
2023/04/08 07:42:03;;;;;;;83.53;37.03;;;;;;;6.30;100.00;101762.19;7394658;19;20095;-66
2023/04/08 07:44:32;;;;;;;82.35;38.80;;;;;;;6.33;100.00;101763.97;7392121;19;20082;-67
2023/04/08 07:47:03;;;;;;;91.53;40.65;;;;;;;6.36;100.00;101762.28;7393667;19;20091;-66
2023/04/08 07:49:31;;;;;;;80.68;38.10;;;;;;;6.41;100.00;101770.16;7392813;19;20019;-65
2023/04/08 07:52:00;;;;;;;86.28;40.88;;;;;;;6.47;100.00;101762.41;7393181;19;20531;-66
2023/04/08 07:54:29;;;;;;;84.18;39.38;;;;;;;6.55;100.00;101764.25;7396267;19;20021;-67
2023/04/08 07:56:58;;;;;;;84.22;39.40;;;;;;;6.64;100.00;101764.34;7401153;19;20011;-66
2023/04/08 07:59:27;;;;;;;79.63;38.05;;;;;;;6.72;100.00;101767.88;7397964;19;20361;-66
2023/04/08 08:01:55;;;;;;;73.28;37.70;;;;;;;6.83;100.00;101768.00;7400822;19;20426;-66
2023/04/08 08:04:26;;;;;;;77.20;36.17;;;;;;;6.93;100.00;101767.25;7398452;19;20031;-68
2023/04/08 08:06:55;;;;;;;65.82;35.05;;;;;;;7.02;99.88;101766.47;7401642;19;20025;-66
2023/04/08 08:09:23;;;;;;;77.38;36.67;;;;;;;7.11;99.54;101770.88;7399078;19;20483;-66
2023/04/08 08:11:51;;;;;;;66.43;34.33;;;;;;;7.19;99.27;101774.47;7401280;19;20359;-67
2023/04/08 08:14:20;;;;;;;64.53;32.75;;;;;;;7.24;98.87;101777.97;7399548;19;20086;-68
2023/04/08 08:16:49;;;;;;;67.47;33.45;;;;;;;7.30;98.69;101780.66;7401257;19;20365;-67
2023/04/08 08:19:17;;;;;;;64.78;33.88;;;;;;;7.36;97.94;101778.94;7400896;19;20431;-67
2023/04/08 08:21:48;;;;;;;66.20;34.42;;;;;;;7.40;97.96;101778.09;7400987;19;20078;-67
2023/04/08 08:24:18;;;;;;;67.80;34.20;;;;;;;7.47;97.68;101780.78;7399188;19;20018;-66
2023/04/08 08:26:48;;;;;;;61.50;33.58;;;;;;;7.51;96.83;101784.28;7400347;19;20021;-66
2023/04/08 08:29:16;;;;;;;59.30;31.75;;;;;;;7.54;96.47;101786.03;7399807;19;20011;-66
2023/04/08 08:31:45;;;;;;;56.63;31.55;;;;;;;7.57;96.70;101786.94;7400000;19;20017;-67
2023/04/08 08:34:13;;;;;;;64.55;33.40;;;;;;;7.59;96.23;101790.41;7398496;19;20025;-66
2023/04/08 08:36:41;;;;;;;66.47;33.60;;;;;;;7.62;95.91;101785.22;7399568;19;20444;-66
2023/04/08 08:39:12;;;;;;;60.08;31.80;;;;;;;7.65;95.98;101789.59;7399949;19;20078;-66
2023/04/08 08:41:41;;;;;;;56.35;30.02;;;;;;;7.70;95.79;101787.03;7400834;19;20106;-67
2023/04/08 08:44:10;;;;;;;61.40;31.42;;;;;;;7.75;95.49;101793.16;7397862;19;20017;-66
2023/04/08 08:46:38;;;;;;;56.75;30.55;;;;;;;7.84;95.12;101801.06;7397375;19;20369;-66
2023/04/08 08:49:06;;;;;;;55.38;30.95;;;;;;;7.93;94.89;101790.66;7396177;19;20014;-67
2023/04/08 08:51:35;;;;;;;47.83;28.02;;;;;;;7.98;93.47;101793.28;7398916;19;20495;-67
2023/04/08 08:54:04;;;;;;;41.78;25.73;;;;;;;8.03;93.52;101801.19;7397407;19;20509;-66
2023/04/08 08:56:35;;;;;;;36.55;22.73;;;;;;;8.07;91.59;101801.19;7399249;19;20023;-67
2023/04/08 08:59:04;;;;;;;39.65;22.83;;;;;;;8.12;91.84;101807.31;7397511;19;20023;-67
2023/04/08 09:01:34;;;;;;;34.85;21.55;;;;;;;8.17;91.41;101807.34;7399345;19;20011;-67
2023/04/08 09:04:11;;;;;;;35.85;23.58;;;;;;;8.25;91.10;101808.28;7396773;19;20015;-67
2023/04/08 09:06:40;;;;;;;38.35;22.30;;;;;;;8.34;91.21;101812.66;7398951;19;20079;-67
2023/04/08 09:09:09;;;;;;;36.92;21.33;;;;;;;8.42;90.83;101821.41;7397738;19;20086;-66
2023/04/08 09:11:42;;;;;;;34.35;21.67;;;;;;;8.54;90.09;101819.75;7398615;19;20025;-67
2023/04/08 09:14:23;;;;;;;30.45;20.23;;;;;;;8.61;88.61;101816.28;7396644;19;20015;-67
2023/04/08 09:16:52;;;;;;;33.42;21.00;;;;;;;8.68;88.87;101832.88;7395574;19;20505;-67
2023/04/08 09:19:20;;;;;;;34.70;21.52;;;;;;;8.71;87.78;101827.69;7397881;19;20485;-68
2023/04/08 09:22:06;;;;;;;32.03;21.95;;;;;;;8.70;87.03;101829.41;7395844;19;20481;-69
2023/04/08 09:24:35;;;;;;;34.03;20.90;;;;;;;8.74;87.76;101835.53;7396122;19;20025;-68
2023/04/08 09:27:07;;;;;;;33.78;22.20;;;;;;;8.75;87.35;101832.03;7396549;19;20014;-68
2023/04/08 09:29:36;;;;;;;33.20;21.75;;;;;;;8.80;87.21;101835.53;7396385;19;20042;-67
2023/04/08 09:32:04;;;;;;;27.13;17.98;;;;;;;8.83;86.32;101837.28;7399114;19;20077;-68
2023/04/08 09:34:33;;;;;;;25.52;17.52;;;;;;;8.84;85.50;101842.53;7395854;19;20048;-68
2023/04/08 09:37:02;;;;;;;27.75;18.52;;;;;;;8.83;85.27;101839.91;7396377;19;20053;-65
2023/04/08 09:39:31;;;;;;;26.17;18.52;;;;;;;8.83;84.75;101851.25;7397562;19;20549;-67
2023/04/08 09:42:02;;;;;;;27.20;18.58;;;;;;;8.83;85.17;101860.84;7397476;19;20390;-66
2023/04/08 09:44:37;;;;;;;26.50;18.90;;;;;;;8.85;84.72;101856.50;7395450;19;20502;-66
2023/04/08 09:47:20;;;;;;;27.40;18.33;;;;;;;8.87;85.31;101860.88;7396241;19;20094;-66
2023/04/08 09:49:57;;;;;;;26.00;19.83;;;;;;;8.91;85.26;101854.78;7395401;19;20400;-66
2023/04/08 09:52:31;;;;;;;31.52;20.45;;;;;;;8.92;84.92;101859.13;7397002;19;21072;-66
2023/04/08 09:55:04;;;;;;;33.03;20.70;;;;;;;8.93;84.72;101855.66;7396113;19;20019;-67
2023/04/08 09:57:42;;;;;;;37.05;21.98;;;;;;;8.91;84.54;101860.00;7396605;19;20022;-70
2023/04/08 10:00:16;;;;;;;30.20;20.92;;;;;;;8.88;83.53;101862.59;7397536;19;20039;-68
2023/04/08 10:02:57;;;;;;;29.25;20.33;;;;;;;8.88;84.34;101856.50;7397244;19;20006;-70
2023/04/08 10:05:27;;;;;;;30.65;20.25;;;;;;;8.92;84.24;101861.75;7396918;19;20369;-67
2023/04/08 10:07:57;;;;;;;31.65;20.25;;;;;;;8.95;83.67;101851.28;7394631;19;20011;-66
2023/04/08 10:10:27;;;;;;;28.55;20.17;;;;;;;8.98;83.83;101855.66;7394856;19;20015;-67
2023/04/08 10:12:55;;;;;;;27.70;20.38;;;;;;;9.03;83.67;101855.66;7396119;19;20040;-67
2023/04/08 10:15:28;;;;;;;31.98;20.20;;;;;;;9.05;82.60;101862.66;7395922;19;20556;-66
2023/04/08 10:17:58;;;;;;;32.92;21.38;;;;;;;9.05;82.38;101865.28;7395096;19;20011;-66
2023/04/08 10:20:43;;;;;;;36.70;21.80;;;;;;;8.97;81.79;101861.75;7396782;19;20580;-67
2023/04/08 10:23:13;;;;;;;33.40;22.70;;;;;;;8.91;82.52;101866.97;7395951;19;20019;-67
2023/04/08 10:25:43;;;;;;;37.08;23.67;;;;;;;8.89;82.65;101869.59;7396188;19;20161;-67
2023/04/08 10:28:28;;;;;;;39.08;25.13;;;;;;;8.90;81.92;101866.09;7394377;19;20026;-68
2023/04/08 10:30:59;;;;;;;35.35;23.75;;;;;;;8.95;82.34;101864.38;7394078;19;20357;-67
2023/04/08 10:33:35;;;;;;;32.40;20.33;;;;;;;9.01;82.01;101867.88;7394356;19;20070;-67
2023/04/08 10:36:12;;;;;;;31.88;21.63;;;;;;;9.07;82.05;101873.13;7394542;19;20014;-67
2023/04/08 10:38:41;;;;;;;31.08;21.65;;;;;;;9.15;82.07;101868.78;7396297;19;20201;-67
2023/04/08 10:41:09;;;;;;;30.90;19.42;;;;;;;9.22;81.37;101869.69;7394368;19;20023;-71
2023/04/08 10:43:39;;;;;;;32.45;20.83;;;;;;;9.24;81.68;101871.44;7394397;19;20044;-66
2023/04/08 10:46:12;;;;;;;28.52;19.40;;;;;;;9.29;81.46;101869.69;7393776;19;20021;-67
2023/04/08 10:48:40;;;;;;;29.23;19.90;;;;;;;9.32;81.33;101873.19;7394611;19;20018;-67
2023/04/08 10:51:09;;;;;;;27.15;18.42;;;;;;;9.34;81.16;101867.09;7393834;19;20015;-69
2023/04/08 10:53:39;;;;;;;28.00;19.60;;;;;;;9.39;80.52;101867.06;7394673;19;20092;-66
2023/04/08 10:56:08;;;;;;;29.65;18.00;;;;;;;9.41;80.03;101873.19;7394985;19;20010;-65
2023/04/08 10:58:37;;;;;;;25.92;19.00;;;;;;;9.39;79.45;101865.34;7393606;19;20019;-66
2023/04/08 11:01:07;;;;;;;23.52;17.13;;;;;;;9.41;79.81;101867.94;7393659;19;20031;-66
2023/04/08 11:03:38;;;;;;;25.00;17.20;;;;;;;9.49;79.97;101867.97;7393651;19;20018;-66
2023/04/08 11:06:07;;;;;;;30.00;20.00;;;;;;;9.61;79.77;101865.34;7395291;19;20028;-67
2023/04/08 11:08:37;;;;;;;27.13;18.13;;;;;;;9.69;77.06;101858.38;7395114;19;20040;-68
2023/04/08 11:11:07;;;;;;;22.70;17.08;;;;;;;9.75;78.13;101865.34;7393489;19;20018;-66
2023/04/08 11:13:37;;;;;;;23.45;17.55;;;;;;;9.83;77.97;101854.84;7393324;19;20029;-68
2023/04/08 11:16:08;;;;;;;21.60;15.13;;;;;;;9.91;77.68;101863.59;7393286;19;20014;-67
2023/04/08 11:18:40;;;;;;;24.05;15.75;;;;;;;10.03;77.72;101857.47;7392953;19;20334;-70
2023/04/08 11:21:11;;;;;;;22.73;17.08;;;;;;;10.08;75.49;101874.06;7395399;19;20070;-66
2023/04/08 11:23:40;;;;;;;21.88;16.08;;;;;;;10.13;76.67;101869.66;7393887;19;20078;-71